Time;durP1;ratioP1;P1;durP2;ratioP2;P2;SDS_P1;SDS_P2;PMS_P1;PMS_P2;Temp;Humidity;BMP_temperature;BMP_pressure;BME280_temperature;BME280_humidity;BME280_pressure;Samples;Min_cycle;Max_cycle;Signal;HPM_P1;HPM_P2
2021/09/25 00:01:12;;;;;;;16.55;8.63;;;17.50;99.90;;;;;;5063168;28;20056;-72
2021/09/25 00:03:38;;;;;;;18.77;8.15;;;17.50;99.90;;;;;;5066999;28;20024;-72
2021/09/25 00:06:03;;;;;;;12.85;8.30;;;17.50;99.90;;;;;;5062434;28;20108;-72
2021/09/25 00:08:29;;;;;;;11.95;7.35;;;17.50;99.90;;;;;;5060194;28;20039;-71
2021/09/25 00:10:54;;;;;;;16.38;8.60;;;17.40;99.90;;;;;;5058299;28;20030;-71
2021/09/25 00:13:20;;;;;;;15.68;8.75;;;17.40;99.90;;;;;;5065503;28;20059;-71
2021/09/25 00:15:46;;;;;;;17.00;8.75;;;17.50;99.90;;;;;;5059051;28;20032;-72
2021/09/25 00:18:11;;;;;;;17.50;8.82;;;17.50;99.90;;;;;;5067108;28;20438;-72
2021/09/25 00:20:38;;;;;;;13.43;8.10;;;17.40;99.90;;;;;;5060934;28;20048;-71
2021/09/25 00:23:04;;;;;;;13.38;7.97;;;17.40;99.90;;;;;;5064913;28;20025;-71
2021/09/25 00:25:30;;;;;;;13.30;7.68;;;17.50;99.90;;;;;;5065575;28;20028;-71
2021/09/25 00:27:55;;;;;;;15.38;7.95;;;17.50;99.90;;;;;;5054795;28;20376;-71
2021/09/25 00:30:21;;;;;;;12.18;7.68;;;17.50;99.90;;;;;;5063948;28;20021;-71
2021/09/25 00:32:46;;;;;;;12.75;7.68;;;17.50;99.90;;;;;;5061441;28;20051;-71
2021/09/25 00:35:13;;;;;;;11.68;7.65;;;17.40;99.90;;;;;;5066820;28;20031;-71
2021/09/25 00:37:39;;;;;;;14.20;7.65;;;17.40;99.90;;;;;;5060796;28;20509;-71
2021/09/25 00:40:06;;;;;;;12.23;8.07;;;17.40;99.90;;;;;;5040733;28;20025;-71
2021/09/25 00:42:32;;;;;;;13.02;7.97;;;17.50;99.90;;;;;;5060932;28;20127;-72
2021/09/25 00:44:58;;;;;;;12.18;7.97;;;17.40;99.90;;;;;;5061044;28;20361;-71
2021/09/25 00:47:23;;;;;;;14.80;8.23;;;17.40;99.90;;;;;;5066670;28;20028;-71
2021/09/25 00:49:49;;;;;;;14.35;8.15;;;17.50;99.90;;;;;;5064103;28;20021;-71
2021/09/25 00:52:15;;;;;;;14.25;8.43;;;17.50;99.90;;;;;;5060567;28;20072;-71
2021/09/25 00:54:40;;;;;;;13.80;8.10;;;17.40;99.90;;;;;;5060533;28;20028;-72
2021/09/25 00:57:06;;;;;;;14.18;7.95;;;17.50;99.90;;;;;;5064715;28;20658;-71
2021/09/25 00:59:33;;;;;;;12.77;7.82;;;17.50;99.90;;;;;;5061421;28;20111;-71
2021/09/25 01:01:59;;;;;;;16.70;8.68;;;17.40;99.90;;;;;;5055150;28;20043;-72
2021/09/25 01:04:24;;;;;;;13.18;8.32;;;17.40;99.90;;;;;;5055795;28;20693;-71
2021/09/25 01:06:50;;;;;;;14.05;8.07;;;17.40;99.90;;;;;;5060061;28;20099;-71
2021/09/25 01:09:16;;;;;;;14.63;7.75;;;17.40;99.90;;;;;;5063260;28;20071;-71
2021/09/25 01:11:42;;;;;;;15.35;8.05;;;17.40;99.90;;;;;;5048607;28;20110;-71
2021/09/25 01:14:07;;;;;;;14.13;8.13;;;17.40;99.90;;;;;;5051078;28;20032;-71
2021/09/25 01:16:33;;;;;;;15.20;8.07;;;17.40;99.90;;;;;;5060917;28;20037;-71
2021/09/25 01:18:58;;;;;;;13.40;7.93;;;17.50;99.90;;;;;;5054962;28;20398;-71
2021/09/25 01:21:24;;;;;;;14.55;7.28;;;17.40;99.90;;;;;;5065936;28;20476;-71
2021/09/25 01:23:49;;;;;;;15.73;7.85;;;17.40;99.90;;;;;;5063273;28;20028;-71
2021/09/25 01:26:16;;;;;;;14.00;7.93;;;17.40;99.90;;;;;;5061552;28;20130;-71
2021/09/25 01:28:43;;;;;;;14.90;7.82;;;17.40;99.90;;;;;;5065668;28;20070;-71
2021/09/25 01:31:11;;;;;;;16.27;7.72;;;17.40;99.90;;;;;;5044121;28;20060;-71
2021/09/25 01:33:42;;;;;;;12.57;7.07;;;17.40;99.90;;;;;;5057426;28;20025;-72
2021/09/25 01:36:10;;;;;;;13.55;7.85;;;17.40;99.90;;;;;;5065062;28;20082;-72
2021/09/25 01:38:36;;;;;;;12.95;8.05;;;17.40;99.90;;;;;;5055756;28;20044;-71
2021/09/25 01:41:02;;;;;;;11.52;7.97;;;17.40;99.90;;;;;;5064403;28;20095;-71
2021/09/25 01:43:29;;;;;;;12.20;7.15;;;17.40;99.90;;;;;;5060124;28;20454;-71
2021/09/25 01:45:55;;;;;;;12.57;8.15;;;17.40;99.90;;;;;;5057525;28;20089;-71
2021/09/25 01:48:24;;;;;;;14.23;7.78;;;17.40;99.90;;;;;;5063647;28;20045;-71
2021/09/25 01:50:50;;;;;;;14.05;8.07;;;17.40;99.90;;;;;;5058959;28;20033;-72
2021/09/25 01:53:17;;;;;;;12.77;7.80;;;17.40;99.90;;;;;;5065290;28;20025;-71
2021/09/25 01:55:43;;;;;;;17.77;8.07;;;17.40;99.90;;;;;;5054975;28;20036;-72
2021/09/25 01:58:08;;;;;;;13.77;8.88;;;17.40;99.90;;;;;;5048939;28;20040;-71
2021/09/25 02:00:34;;;;;;;14.38;7.55;;;17.40;99.90;;;;;;5061757;28;20042;-72
2021/09/25 02:03:01;;;;;;;15.02;7.53;;;17.40;99.90;;;;;;5062012;28;20031;-72
2021/09/25 02:05:27;;;;;;;13.15;7.72;;;17.40;99.90;;;;;;5064631;28;20027;-71
2021/09/25 02:07:52;;;;;;;11.57;7.47;;;17.40;99.90;;;;;;5058931;28;20395;-72
2021/09/25 02:10:18;;;;;;;12.68;7.55;;;17.40;99.90;;;;;;5057319;28;20595;-72
2021/09/25 02:12:44;;;;;;;12.90;8.02;;;17.40;99.90;;;;;;5057879;28;20032;-72
2021/09/25 02:15:10;;;;;;;14.23;8.25;;;17.40;99.90;;;;;;5057836;28;20059;-71
2021/09/25 02:17:36;;;;;;;13.10;7.80;;;17.40;99.90;;;;;;5061433;28;20483;-72
2021/09/25 02:20:05;;;;;;;14.35;8.75;;;17.40;99.90;;;;;;5060875;28;20035;-71
2021/09/25 02:22:31;;;;;;;14.50;8.18;;;17.40;99.90;;;;;;5065444;28;20471;-72
2021/09/25 02:24:56;;;;;;;13.15;8.20;;;17.40;99.90;;;;;;5060370;28;20031;-71
2021/09/25 02:27:21;;;;;;;13.02;7.70;;;17.40;99.90;;;;;;5064105;28;20021;-71
2021/09/25 02:29:47;;;;;;;13.43;8.30;;;17.40;99.90;;;;;;5062830;28;20063;-71
2021/09/25 02:32:12;;;;;;;13.80;8.57;;;17.40;99.90;;;;;;5063510;28;20024;-72
2021/09/25 02:34:39;;;;;;;13.50;7.82;;;17.40;99.90;;;;;;5060157;28;20029;-72
2021/09/25 02:37:05;;;;;;;13.73;8.23;;;17.40;99.90;;;;;;5060181;28;20052;-72
2021/09/25 02:39:32;;;;;;;14.93;7.78;;;17.40;99.90;;;;;;5056910;28;20016;-71
2021/09/25 02:41:58;;;;;;;14.20;7.93;;;17.40;99.90;;;;;;5057876;28;20103;-71
2021/09/25 02:44:24;;;;;;;14.10;7.85;;;17.40;99.90;;;;;;5063500;28;20029;-71
2021/09/25 02:46:50;;;;;;;17.65;8.02;;;17.40;99.90;;;;;;5058851;28;20020;-71
2021/09/25 02:49:17;;;;;;;16.15;8.18;;;17.30;99.90;;;;;;5062895;28;20032;-71
2021/09/25 02:51:43;;;;;;;15.75;8.25;;;17.40;99.90;;;;;;5058465;28;20044;-71
2021/09/25 02:54:08;;;;;;;11.73;7.45;;;17.40;99.90;;;;;;5057055;28;20025;-72
2021/09/25 02:56:34;;;;;;;15.13;7.70;;;17.40;99.90;;;;;;5071683;28;20028;-71
2021/09/25 02:58:59;;;;;;;12.15;7.88;;;17.30;99.90;;;;;;5040867;28;20066;-71
2021/09/25 03:01:25;;;;;;;10.93;7.43;;;17.40;99.90;;;;;;5060078;28;20048;-72
2021/09/25 03:03:54;;;;;;;11.45;7.57;;;17.30;99.90;;;;;;5060757;28;20036;-71
2021/09/25 03:06:23;;;;;;;14.48;7.78;;;17.30;99.90;;;;;;5038038;28;20024;-71
2021/09/25 03:08:49;;;;;;;14.20;8.23;;;17.30;99.90;;;;;;5053542;28;20036;-71
2021/09/25 03:11:15;;;;;;;14.00;7.97;;;17.30;99.90;;;;;;5055869;28;20029;-71
2021/09/25 03:13:44;;;;;;;11.60;7.18;;;17.30;99.90;;;;;;5061596;28;20041;-71
2021/09/25 03:16:10;;;;;;;12.80;7.43;;;17.30;99.90;;;;;;5058538;28;20032;-71
2021/09/25 03:18:36;;;;;;;11.60;7.43;;;17.30;99.90;;;;;;5057966;28;20033;-71
2021/09/25 03:21:01;;;;;;;15.38;7.80;;;17.30;99.90;;;;;;5062349;28;20031;-71
2021/09/25 03:23:27;;;;;;;11.02;7.30;;;17.30;99.90;;;;;;5062966;28;20013;-72
2021/09/25 03:25:52;;;;;;;9.45;6.95;;;17.40;99.90;;;;;;5062024;28;20028;-72
2021/09/25 03:28:18;;;;;;;12.57;7.53;;;17.40;99.90;;;;;;5059169;28;20037;-71
2021/09/25 03:30:44;;;;;;;12.10;6.85;;;17.40;99.90;;;;;;5057279;28;20032;-71
2021/09/25 03:33:10;;;;;;;12.52;7.45;;;17.40;99.90;;;;;;5064954;28;20132;-71
2021/09/25 03:35:35;;;;;;;14.00;7.82;;;17.40;99.90;;;;;;5061245;28;20024;-71
2021/09/25 03:38:01;;;;;;;13.45;7.82;;;17.40;99.90;;;;;;5062199;28;20067;-72
2021/09/25 03:40:27;;;;;;;12.88;7.03;;;17.40;99.90;;;;;;5062641;28;20024;-71
2021/09/25 03:42:53;;;;;;;12.70;7.13;;;17.40;99.90;;;;;;5056597;28;20128;-71
2021/09/25 03:45:19;;;;;;;13.20;7.28;;;17.40;99.90;;;;;;5054158;28;20128;-71
2021/09/25 03:47:44;;;;;;;14.50;7.97;;;17.40;99.90;;;;;;5061390;28;20051;-72
2021/09/25 03:50:11;;;;;;;12.55;6.60;;;17.40;99.90;;;;;;5062666;28;20395;-71
2021/09/25 03:52:37;;;;;;;17.50;7.15;;;17.40;99.90;;;;;;5062590;28;20043;-70
2021/09/25 03:55:04;;;;;;;14.05;6.95;;;17.40;99.90;;;;;;5060169;28;20025;-70
2021/09/25 03:57:29;;;;;;;12.20;8.18;;;17.40;99.90;;;;;;5061167;28;20154;-71
2021/09/25 03:59:55;;;;;;;13.75;8.00;;;17.40;99.90;;;;;;5059482;28;20601;-71
2021/09/25 04:02:20;;;;;;;12.48;7.40;;;17.40;99.90;;;;;;5066137;28;20020;-71
2021/09/25 04:04:53;;;;;;;15.93;7.93;;;17.40;99.90;;;;;;5065580;28;20052;-71
2021/09/25 04:07:19;;;;;;;12.65;8.50;;;17.40;99.90;;;;;;5060302;28;20471;-71
2021/09/25 04:09:44;;;;;;;17.20;9.70;;;17.30;99.90;;;;;;5052714;28;20028;-71
2021/09/25 04:12:10;;;;;;;18.13;10.20;;;17.30;99.90;;;;;;5058202;28;20029;-71
2021/09/25 04:14:36;;;;;;;22.48;9.82;;;17.30;99.90;;;;;;5049901;28;20025;-71
2021/09/25 04:17:01;;;;;;;19.73;10.55;;;17.20;99.90;;;;;;5054120;28;20024;-71
2021/09/25 04:19:28;;;;;;;17.65;9.90;;;17.20;99.90;;;;;;5060052;28;20116;-71
2021/09/25 04:21:54;;;;;;;17.15;11.10;;;17.10;99.90;;;;;;5057171;28;20116;-71
2021/09/25 04:24:19;;;;;;;20.38;12.13;;;17.00;99.90;;;;;;5057003;28;20586;-71
2021/09/25 04:26:45;;;;;;;18.85;11.70;;;17.00;99.90;;;;;;5058367;28;20021;-70
2021/09/25 04:29:10;;;;;;;21.73;11.57;;;17.00;99.90;;;;;;5060342;28;20032;-71
2021/09/25 04:31:36;;;;;;;21.48;11.32;;;17.00;99.90;;;;;;5060168;28;20032;-71
2021/09/25 04:34:12;;;;;;;20.27;11.23;;;16.90;99.90;;;;;;5057712;28;20037;-71
2021/09/25 04:36:40;;;;;;;20.80;9.45;;;16.90;99.90;;;;;;5059816;28;20033;-71
2021/09/25 04:39:06;;;;;;;19.10;9.93;;;16.90;99.90;;;;;;5055599;28;20029;-70
2021/09/25 04:41:32;;;;;;;20.15;9.40;;;16.90;99.90;;;;;;5058367;28;20021;-71
2021/09/25 04:43:58;;;;;;;14.02;8.82;;;16.90;99.90;;;;;;5059618;28;20082;-71
2021/09/25 04:46:23;;;;;;;17.52;9.02;;;16.80;99.90;;;;;;5062809;28;20064;-71
2021/09/25 04:48:49;;;;;;;16.38;8.40;;;16.90;99.90;;;;;;5064048;28;20365;-71
2021/09/25 04:51:19;;;;;;;19.17;9.70;;;16.90;99.90;;;;;;5063901;28;20035;-71
2021/09/25 04:53:45;;;;;;;15.82;8.75;;;16.80;99.90;;;;;;5063067;28;20036;-71
2021/09/25 04:56:11;;;;;;;16.48;9.18;;;16.80;99.90;;;;;;5062965;28;20024;-70
2021/09/25 04:58:38;;;;;;;18.23;9.13;;;16.80;99.90;;;;;;5063760;28;20446;-71
2021/09/25 05:01:04;;;;;;;16.23;8.80;;;16.80;99.90;;;;;;5061344;28;20020;-71
2021/09/25 05:03:30;;;;;;;19.50;9.30;;;16.80;99.90;;;;;;5064315;28;20021;-70
2021/09/25 05:05:56;;;;;;;15.95;9.02;;;16.80;99.90;;;;;;5053918;28;20448;-71
2021/09/25 05:08:21;;;;;;;13.20;8.85;;;16.70;99.90;;;;;;5060322;28;20507;-71
2021/09/25 05:10:47;;;;;;;18.15;8.93;;;16.70;99.90;;;;;;5057269;28;20037;-71
2021/09/25 05:13:12;;;;;;;15.73;8.77;;;16.70;99.90;;;;;;5066388;28;20024;-71
2021/09/25 05:15:38;;;;;;;19.15;9.98;;;16.70;99.90;;;;;;5064197;28;20059;-71
2021/09/25 05:18:03;;;;;;;18.98;8.98;;;16.70;99.90;;;;;;5066441;28;20505;-71
2021/09/25 05:20:29;;;;;;;16.17;9.10;;;16.70;99.90;;;;;;5062681;28;20025;-71
2021/09/25 05:22:54;;;;;;;20.63;9.57;;;16.70;99.90;;;;;;5066178;28;20538;-71
2021/09/25 05:25:20;;;;;;;16.90;9.15;;;16.70;99.90;;;;;;5061259;28;20035;-70
2021/09/25 05:27:48;;;;;;;16.67;9.40;;;16.70;99.90;;;;;;5063417;28;20118;-71
2021/09/25 05:30:13;;;;;;;13.55;8.02;;;16.70;99.90;;;;;;5059444;28;20021;-71
2021/09/25 05:32:39;;;;;;;15.02;8.30;;;16.70;99.90;;;;;;5061904;28;20825;-70
2021/09/25 05:35:06;;;;;;;16.25;8.95;;;16.70;99.90;;;;;;5063480;28;20039;-71
2021/09/25 05:37:31;;;;;;;13.88;8.32;;;16.80;99.90;;;;;;5054010;28;20040;-70
2021/09/25 05:39:57;;;;;;;12.77;8.70;;;16.70;99.90;;;;;;5061586;28;20079;-71
2021/09/25 05:42:24;;;;;;;15.52;9.27;;;16.80;99.90;;;;;;5062465;28;20090;-71
2021/09/25 05:44:50;;;;;;;14.07;8.80;;;16.80;99.90;;;;;;5061739;28;20365;-70
2021/09/25 05:47:16;;;;;;;14.95;8.02;;;16.80;99.90;;;;;;5061187;28;20523;-70
2021/09/25 05:49:44;;;;;;;17.75;9.07;;;16.80;99.90;;;;;;5061034;28;20031;-70
2021/09/25 05:52:10;;;;;;;16.02;9.30;;;16.70;99.90;;;;;;5064609;28;20060;-70
2021/09/25 05:54:36;;;;;;;14.60;8.45;;;16.70;99.90;;;;;;5062894;28;20276;-70
2021/09/25 05:57:02;;;;;;;11.98;7.70;;;16.70;99.90;;;;;;5056197;28;20455;-70
2021/09/25 05:59:28;;;;;;;13.27;8.32;;;16.70;99.90;;;;;;5063679;28;20107;-72
2021/09/25 06:01:53;;;;;;;13.48;7.97;;;16.80;99.90;;;;;;5059536;28;20028;-71
2021/09/25 06:04:19;;;;;;;12.85;7.68;;;16.80;99.90;;;;;;5061907;28;20063;-72
2021/09/25 06:06:44;;;;;;;19.00;8.32;;;16.80;99.90;;;;;;5058852;28;20064;-73
2021/09/25 06:09:09;;;;;;;14.43;7.85;;;16.90;99.90;;;;;;5065203;28;20055;-71
2021/09/25 06:11:35;;;;;;;17.35;7.63;;;16.90;99.90;;;;;;5058436;28;20078;-72
2021/09/25 06:14:00;;;;;;;14.48;8.25;;;16.90;99.90;;;;;;5053807;28;20044;-73
2021/09/25 06:16:26;;;;;;;14.30;7.97;;;17.00;99.90;;;;;;5040124;28;20021;-72
2021/09/25 06:18:51;;;;;;;11.60;7.22;;;17.00;99.90;;;;;;5053483;28;20156;-72
2021/09/25 06:21:17;;;;;;;13.38;7.85;;;17.00;99.90;;;;;;5061933;28;20032;-72
2021/09/25 06:23:42;;;;;;;11.77;7.32;;;17.10;99.90;;;;;;5062665;28;20691;-72
2021/09/25 06:26:08;;;;;;;14.15;7.55;;;17.10;99.90;;;;;;5060599;28;20059;-73
2021/09/25 06:28:34;;;;;;;14.43;7.35;;;17.10;99.90;;;;;;5066014;28;20172;-73
2021/09/25 06:31:00;;;;;;;10.93;6.97;;;17.10;99.90;;;;;;5059577;28;20036;-74
2021/09/25 06:33:25;;;;;;;13.80;6.90;;;17.20;99.90;;;;;;5060589;28;20582;-74
2021/09/25 06:35:53;;;;;;;12.32;7.22;;;17.20;99.90;;;;;;5061823;28;20028;-73
2021/09/25 06:38:19;;;;;;;13.25;6.80;;;17.20;99.90;;;;;;5063214;28;20029;-73
2021/09/25 06:40:44;;;;;;;15.73;7.43;;;17.20;99.90;;;;;;5056089;28;20028;-74
2021/09/25 06:43:09;;;;;;;12.70;7.40;;;17.30;99.90;;;;;;5062100;28;20698;-74
2021/09/25 06:45:38;;;;;;;11.85;6.85;;;17.30;99.90;;;;;;5063964;28;20028;-73
2021/09/25 06:48:04;;;;;;;11.68;7.22;;;17.30;99.90;;;;;;5051734;28;20032;-74
2021/09/25 06:50:30;;;;;;;12.30;6.70;;;17.40;99.90;;;;;;5062016;28;20059;-73
2021/09/25 06:52:55;;;;;;;15.60;7.10;;;17.40;99.90;;;;;;5061656;28;20061;-73
2021/09/25 06:55:21;;;;;;;17.73;7.45;;;17.40;99.90;;;;;;5062202;28;20032;-69
2021/09/25 06:57:46;;;;;;;12.38;6.95;;;17.50;99.90;;;;;;5051660;28;20045;-70
2021/09/25 07:00:12;;;;;;;12.85;6.90;;;17.50;99.90;;;;;;5048726;28;20036;-71
2021/09/25 07:02:39;;;;;;;11.45;6.95;;;17.50;99.90;;;;;;5044169;28;20020;-70
2021/09/25 07:05:06;;;;;;;12.55;6.50;;;17.50;99.90;;;;;;5042557;28;20025;-71
2021/09/25 07:07:32;;;;;;;14.82;7.35;;;17.50;99.90;;;;;;5047158;28;20024;-70
2021/09/25 07:09:57;;;;;;;10.50;6.57;;;17.50;99.90;;;;;;5037600;28;20029;-71
2021/09/25 07:12:23;;;;;;;11.65;7.15;;;17.60;99.90;;;;;;5030812;28;20056;-71
2021/09/25 07:14:48;;;;;;;12.48;7.00;;;17.60;99.90;;;;;;5041444;28;20124;-70
2021/09/25 07:17:14;;;;;;;11.93;7.18;;;17.60;99.90;;;;;;5045902;28;20060;-71
2021/09/25 07:19:39;;;;;;;10.38;6.38;;;17.60;99.90;;;;;;5044734;28;20092;-69
2021/09/25 07:22:07;;;;;;;11.13;7.15;;;17.70;99.90;;;;;;5040423;28;20017;-70
2021/09/25 07:24:34;;;;;;;14.48;7.22;;;17.70;99.90;;;;;;5050500;28;20024;-70
2021/09/25 07:26:59;;;;;;;11.00;6.95;;;17.70;99.90;;;;;;5040837;28;20040;-73
2021/09/25 07:29:25;;;;;;;13.75;6.60;;;17.80;99.90;;;;;;5039813;28;20016;-71
2021/09/25 07:31:50;;;;;;;10.57;6.95;;;17.90;99.90;;;;;;5040939;28;20024;-68
2021/09/25 07:34:16;;;;;;;12.65;6.95;;;17.90;99.90;;;;;;5037885;28;20033;-70
2021/09/25 07:36:47;;;;;;;10.45;6.53;;;18.00;99.90;;;;;;5040190;28;20025;-70
2021/09/25 07:39:12;;;;;;;13.05;6.35;;;18.00;99.90;;;;;;5024274;28;20025;-72
2021/09/25 07:41:38;;;;;;;16.58;6.38;;;18.10;99.90;;;;;;5031116;28;20388;-76
2021/09/25 07:44:04;;;;;;;9.48;6.38;;;18.10;99.90;;;;;;5040569;28;20016;-73
2021/09/25 07:46:31;;;;;;;13.48;7.15;;;18.10;99.90;;;;;;5035029;28;20077;-74
2021/09/25 07:48:58;;;;;;;11.70;6.75;;;18.10;99.90;;;;;;5036250;28;20022;-71
2021/09/25 07:51:28;;;;;;;14.77;7.32;;;18.10;99.90;;;;;;5041996;28;20028;-71
2021/09/25 07:53:54;;;;;;;11.05;6.80;;;18.10;99.90;;;;;;5038766;28;20087;-71
2021/09/25 07:56:20;;;;;;;13.07;6.90;;;18.20;99.90;;;;;;5035188;28;20131;-71
2021/09/25 07:58:46;;;;;;;13.35;6.50;;;18.20;99.90;;;;;;5024986;28;20215;-71
2021/09/25 08:01:12;;;;;;;10.57;6.25;;;18.30;99.90;;;;;;5035914;28;20500;-70
2021/09/25 08:03:37;;;;;;;10.98;6.47;;;18.40;99.90;;;;;;5040287;28;20029;-71
2021/09/25 08:06:03;;;;;;;17.25;6.85;;;18.50;99.90;;;;;;5040816;28;20805;-70
2021/09/25 08:08:28;;;;;;;12.45;6.93;;;18.50;99.90;;;;;;5048151;28;20044;-71
2021/09/25 08:10:54;;;;;;;15.38;7.20;;;18.60;99.90;;;;;;5037443;28;20030;-70
2021/09/25 08:13:19;;;;;;;11.88;6.95;;;18.70;99.90;;;;;;5046875;28;20044;-71
2021/09/25 08:15:45;;;;;;;11.80;6.60;;;18.70;99.90;;;;;;5036104;28;20037;-70
2021/09/25 08:18:11;;;;;;;11.45;7.00;;;18.70;99.90;;;;;;5038575;28;20056;-70
2021/09/25 08:20:36;;;;;;;12.68;6.25;;;18.70;99.90;;;;;;5044815;28;20047;-70
2021/09/25 08:23:02;;;;;;;11.98;6.80;;;18.70;99.90;;;;;;5041394;28;20021;-70
2021/09/25 08:25:27;;;;;;;11.32;7.25;;;18.70;99.90;;;;;;5049946;28;20568;-70
2021/09/25 08:27:53;;;;;;;15.85;7.80;;;18.60;99.90;;;;;;5049921;28;20032;-70
2021/09/25 08:30:19;;;;;;;13.38;8.00;;;18.60;99.90;;;;;;5049455;28;20462;-70
2021/09/25 08:32:46;;;;;;;11.48;7.60;;;18.60;99.90;;;;;;5044094;28;20037;-70
2021/09/25 08:35:11;;;;;;;14.63;7.50;;;18.60;99.90;;;;;;5046068;28;20037;-70
2021/09/25 08:37:39;;;;;;;12.63;7.75;;;18.60;99.90;;;;;;5041824;28;20029;-71
2021/09/25 08:40:07;;;;;;;11.57;7.43;;;18.50;99.90;;;;;;5051214;28;20482;-69
2021/09/25 08:42:33;;;;;;;16.77;8.60;;;18.50;99.90;;;;;;5042809;28;20029;-69
2021/09/25 08:44:59;;;;;;;11.35;7.30;;;18.50;99.90;;;;;;5047075;28;20595;-75
2021/09/25 08:47:24;;;;;;;15.32;7.78;;;18.50;99.90;;;;;;5042708;28;20039;-76
2021/09/25 08:49:50;;;;;;;11.63;7.20;;;18.50;99.90;;;;;;5041969;28;20164;-72
2021/09/25 08:52:17;;;;;;;16.83;7.25;;;18.50;99.90;;;;;;5046369;28;20025;-75
2021/09/25 08:54:43;;;;;;;10.18;7.57;;;18.50;99.90;;;;;;5038679;28;20538;-70
2021/09/25 08:57:09;;;;;;;12.30;6.97;;;18.50;99.90;;;;;;5048493;28;20411;-71
2021/09/25 08:59:34;;;;;;;9.40;7.13;;;18.60;99.90;;;;;;5058470;28;20025;-75
2021/09/25 09:02:11;;;;;;;12.45;7.90;;;18.60;99.90;;;;;;5063365;28;20040;-72
2021/09/25 09:04:45;;;;;;;14.65;7.85;;;18.70;99.90;;;;;;5060822;28;20044;-74
2021/09/25 09:07:23;;;;;;;11.93;6.97;;;18.60;99.90;;;;;;5056932;28;20182;-74
2021/09/25 09:09:49;;;;;;;11.75;7.28;;;18.70;99.90;;;;;;5052220;28;20052;-74
2021/09/25 09:12:21;;;;;;;13.25;8.30;;;18.70;99.90;;;;;;5058597;28;20060;-74
2021/09/25 09:14:51;;;;;;;13.80;8.05;;;18.70;99.90;;;;;;5061127;28;20597;-73
2021/09/25 09:17:23;;;;;;;14.73;8.55;;;18.70;99.90;;;;;;5063398;28;20458;-74
2021/09/25 09:19:48;;;;;;;13.93;8.38;;;18.70;99.90;;;;;;5067748;28;20022;-74
2021/09/25 09:22:20;;;;;;;15.95;9.57;;;18.60;99.90;;;;;;5060342;28;20021;-74
2021/09/25 09:24:46;;;;;;;;;;;18.60;99.90;;;;;;5065174;28;20422;-74
2021/09/25 09:27:18;;;;;;;13.88;8.52;;;18.50;99.90;;;;;;5062640;28;19944;-74
2021/09/25 09:29:44;;;;;;;19.15;9.93;;;18.50;99.90;;;;;;5062302;28;20563;-73
2021/09/25 09:32:14;;;;;;;17.63;9.40;;;18.50;99.90;;;;;;5062481;28;20028;-73
2021/09/25 09:34:41;;;;;;;10.73;8.13;;;18.50;99.90;;;;;;5064558;28;20478;-74
2021/09/25 09:37:12;;;;;;;13.40;8.75;;;18.50;99.90;;;;;;5065863;28;20040;-73
2021/09/25 09:39:37;;;;;;;13.68;7.38;;;18.50;99.90;;;;;;5065836;28;20487;-73
2021/09/25 09:42:03;;;;;;;12.70;8.30;;;18.50;99.90;;;;;;5055375;28;20031;-71
2021/09/25 09:44:31;;;;;;;12.82;8.15;;;18.50;99.90;;;;;;5058646;28;20032;-72
2021/09/25 09:47:02;;;;;;;12.25;8.23;;;18.50;99.90;;;;;;5040068;28;20104;-72
2021/09/25 09:49:33;;;;;;;14.02;8.85;;;18.50;99.90;;;;;;5058610;28;20036;-72
2021/09/25 09:52:10;;;;;;;14.15;8.73;;;18.50;99.90;;;;;;5061912;28;20028;-73
2021/09/25 09:54:46;;;;;;;13.32;8.02;;;18.40;99.90;;;;;;5042908;28;20029;-72
2021/09/25 09:57:14;;;;;;;13.18;8.45;;;18.40;99.90;;;;;;5063867;28;20052;-71
2021/09/25 09:59:41;;;;;;;14.40;9.75;;;18.40;99.90;;;;;;5060614;28;20044;-71
2021/09/25 10:02:07;;;;;;;14.07;9.18;;;18.30;99.90;;;;;;5062725;28;20082;-72
2021/09/25 10:04:34;;;;;;;14.35;9.48;;;18.30;99.90;;;;;;5064108;28;20041;-72
2021/09/25 10:07:00;;;;;;;13.23;9.70;;;18.30;99.90;;;;;;5054162;28;20086;-71
2021/09/25 10:09:31;;;;;;;16.83;11.05;;;18.30;99.90;;;;;;5064468;28;20461;-71
2021/09/25 10:12:02;;;;;;;15.48;10.30;;;18.30;99.90;;;;;;5061669;28;20155;-72
2021/09/25 10:14:29;;;;;;;;;;;18.30;99.90;;;;;;5057029;28;20044;-72
2021/09/25 10:16:56;;;;;;;16.65;10.40;;;18.40;99.90;;;;;;5056976;28;19909;-73
2021/09/25 10:19:30;;;;;;;14.55;8.75;;;18.50;99.90;;;;;;5054904;28;20454;-72
2021/09/25 10:22:01;;;;;;;15.25;9.18;;;18.70;99.90;;;;;;5054725;28;20020;-72
2021/09/25 10:24:31;;;;;;;13.87;9.00;;;18.80;99.90;;;;;;5048563;28;20027;-71
2021/09/25 10:27:01;;;;;;;12.93;9.13;;;18.90;99.90;;;;;;5053786;28;20028;-71
2021/09/25 10:29:27;;;;;;;13.63;9.40;;;19.10;99.90;;;;;;5061465;28;20040;-71
2021/09/25 10:32:14;;;;;;;13.45;9.98;;;19.20;99.90;;;;;;5051847;28;20104;-72
2021/09/25 10:34:54;;;;;;;13.18;9.18;;;19.30;99.90;;;;;;5056159;28;20024;-70
2021/09/25 10:37:20;;;;;;;13.02;8.63;;;19.40;99.90;;;;;;5057016;28;20037;-71
2021/09/25 10:39:57;;;;;;;14.18;9.20;;;19.40;99.90;;;;;;5051957;28;20098;-71
2021/09/25 10:42:46;;;;;;;14.63;9.25;;;19.50;99.90;;;;;;5059694;28;20028;-72
2021/09/25 10:45:24;;;;;;;14.98;9.13;;;19.60;99.90;;;;;;5059292;28;20036;-73
2021/09/25 10:48:12;;;;;;;13.35;8.18;;;19.70;99.90;;;;;;5051289;28;20538;-74
2021/09/25 10:50:58;;;;;;;11.40;8.68;;;19.90;99.90;;;;;;5055437;28;20047;-73
2021/09/25 10:53:32;;;;;;;13.98;8.80;;;20.10;99.90;;;;;;5053038;28;20029;-73
2021/09/25 10:56:02;;;;;;;13.45;8.50;;;20.20;99.90;;;;;;5061351;28;20024;-73
2021/09/25 10:58:30;;;;;;;17.92;9.35;;;20.10;99.90;;;;;;5064201;28;20402;-73
2021/09/25 11:01:15;;;;;;;14.05;8.95;;;20.10;99.90;;;;;;5057232;28;20021;-73
2021/09/25 11:03:46;;;;;;;15.45;9.10;;;20.20;99.90;;;;;;5068045;28;20433;-73
2021/09/25 11:06:12;;;;;;;12.48;8.63;;;20.30;99.90;;;;;;5060795;28;20028;-74
2021/09/25 11:08:47;;;;;;;9.68;7.72;;;20.30;99.90;;;;;;5063618;28;20032;-73
2021/09/25 11:11:15;;;;;;;12.43;8.10;;;20.40;99.90;;;;;;5059861;28;20480;-73
2021/09/25 11:14:02;;;;;;;10.00;8.05;;;20.60;99.90;;;;;;5057188;28;20033;-73
2021/09/25 11:17:08;;;;;;;9.80;7.00;;;20.60;99.90;;;;;;5059723;28;20033;-73
2021/09/25 11:19:43;;;;;;;10.93;7.82;;;20.50;99.90;;;;;;5056306;28;20063;-73
2021/09/25 11:22:17;;;;;;;12.68;7.53;;;20.50;99.90;;;;;;5057377;28;20024;-73
2021/09/25 11:24:54;;;;;;;13.73;7.60;;;20.50;99.90;;;;;;5062226;28;20513;-73
2021/09/25 11:27:21;;;;;;;14.70;8.35;;;20.40;99.90;;;;;;5063172;28;20047;-73
2021/09/25 11:29:51;;;;;;;10.38;7.80;;;20.30;99.90;;;;;;5056548;28;20024;-73
2021/09/25 11:32:16;;;;;;;10.48;7.57;;;20.20;99.90;;;;;;5060885;28;20108;-73
2021/09/25 11:34:46;;;;;;;11.18;7.65;;;20.10;99.90;;;;;;5056088;28;20547;-73
2021/09/25 11:37:12;;;;;;;11.05;6.78;;;20.00;99.90;;;;;;5063859;28;20109;-73
2021/09/25 11:39:43;;;;;;;8.30;6.13;;;20.00;99.90;;;;;;5063070;28;20056;-74
2021/09/25 11:42:12;;;;;;;;;;;19.90;99.90;;;;;;5064748;28;20020;-73
2021/09/25 11:45:04;;;;;;;11.45;6.80;;;19.80;99.90;;;;;;5060222;28;20430;-73
2021/09/25 11:47:33;;;;;;;10.70;6.50;;;19.80;99.90;;;;;;5057244;28;20423;-73
2021/09/25 11:50:26;;;;;;;8.73;6.50;;;19.90;99.90;;;;;;5056384;28;20104;-74
2021/09/25 11:52:58;;;;;;;8.02;6.40;;;19.90;99.90;;;;;;5055601;28;20027;-73
2021/09/25 11:55:26;;;;;;;9.27;6.03;;;20.00;99.90;;;;;;5054939;28;20103;-73
2021/09/25 11:57:55;;;;;;;7.93;6.25;;;20.10;99.90;;;;;;5064583;28;20052;-73
2021/09/25 12:00:27;;;;;;;8.60;5.82;;;20.20;99.90;;;;;;5061382;28;20025;-74
2021/09/25 12:02:55;;;;;;;7.30;5.70;;;20.30;99.90;;;;;;5047227;28;20036;-73
2021/09/25 12:05:48;;;;;;;8.23;5.90;;;20.30;99.90;;;;;;5059560;28;20023;-74
2021/09/25 12:08:21;;;;;;;8.20;5.13;;;20.40;99.90;;;;;;5061785;28;20434;-75
2021/09/25 12:10:49;;;;;;;8.98;5.22;;;20.70;99.90;;;;;;5058133;28;20032;-68
2021/09/25 12:13:20;;;;;;;5.45;4.50;;;21.70;99.90;;;;;;5058116;28;20037;-68
2021/09/25 12:15:46;;;;;;;;;;;22.60;99.90;;;;;;5061375;28;20457;-69
2021/09/25 12:18:25;;;;;;;4.68;3.67;;;23.10;99.90;;;;;;5055928;28;19912;-69
2021/09/25 12:20:58;;;;;;;4.15;3.75;;;23.40;99.90;;;;;;5058587;28;20028;-69
2021/09/25 12:23:52;;;;;;;4.70;4.03;;;23.30;98.50;;;;;;5052679;28;20028;-68
2021/09/25 12:26:23;;;;;;;3.90;3.50;;;22.90;98.70;;;;;;5054666;28;20040;-68
2021/09/25 12:28:54;;;;;;;4.90;4.20;;;22.50;99.90;;;;;;5054532;28;20518;-69
2021/09/25 12:31:25;;;;;;;5.40;3.72;;;22.10;99.90;;;;;;5056379;28;20032;-69
2021/09/25 12:34:25;;;;;;;5.45;3.90;;;21.70;99.90;;;;;;5062421;28;20538;-70
2021/09/25 12:36:57;;;;;;;6.53;5.05;;;21.30;99.90;;;;;;5019908;28;20041;-70
2021/09/25 12:39:24;;;;;;;7.63;4.03;;;21.00;99.90;;;;;;5062089;28;20060;-70
2021/09/25 12:41:52;;;;;;;6.07;4.45;;;20.90;99.90;;;;;;5061532;28;20479;-70